Wetterdaten: aktuell Dienstag, 05.05.2020 11:00
Datum Zeit Temp. I. Temp. A. Feuchte I. Feuchte A. Luftdruck Regen Wind Richtung Richtung Taupunkt Windchill
05.05.2020 11:00 22,9 C 9,3 C 28 % 65 % 1019 hPa 0,0 mm 5,4 km/h (1 Bft) N-NO45 20 3,1 C 8,8 C
05.05.2020 10:00 22,5 C 8,0 C 28 % 70 % 1019 hPa 0,0 mm 8,3 km/h (2 Bft) NO 45 2,9 C 6,6 C
05.05.2020 09:00 22,1 C 6,4 C 29 % 78 % 1020 hPa 0,0 mm 1,8 km/h (1 Bft) NO 45 2,8 C 6,4 C
05.05.2020 08:00 21,5 C 4,5 C 29 % 82 % 1019 hPa 0,0 mm 5,4 km/h (1 Bft) N-NW45 335 1,7 C 3,4 C
05.05.2020 07:00 21,4 C 3,3 C 29 % 80 % 1020 hPa 0,0 mm 0,0 km/h (0 Bft) W-NW45 290 0,2 C 3,3 C
05.05.2020 06:00 21,5 C 3,4 C 30 % 79 % 1019 hPa 0,0 mm 0,0 km/h (0 Bft) N-NW45 335 0,1 C 3,4 C
05.05.2020 05:00 21,6 C 4,1 C 30 % 77 % 1019 hPa 0,0 mm 0,0 km/h (0 Bft) N 360 0,4 C 4,1 C
05.05.2020 04:00 21,6 C 5,0 C 30 % 75 % 1019 hPa 0,0 mm 0,0 km/h (0 Bft) N 360 0,9 C 5,0 C
05.05.2020 03:00 21,7 C 5,9 C 30 % 72 % 1019 hPa 0,0 mm 0,0 km/h (0 Bft) N-NO45 20 1,2 C 5,9 C
05.05.2020 02:00 21,8 C 6,8 C 30 % 70 % 1020 hPa 0,0 mm 4,7 km/h (1 Bft) N 360 1,7 C 6,2 C
05.05.2020 01:00 21,9 C 7,5 C 30 % 68 % 1020 hPa 0,0 mm 0,0 km/h (0 Bft) N-NW45 335 2,0 C 7,5 C
05.05.2020 00:00 22,0 C 8,5 C 30 % 66 % 1019 hPa 0,0 mm 6,1 km/h (2 Bft) N-NO45 20 2,5 C 7,7 C
04.05.2020 23:00 22,1 C 9,5 C 30 % 63 % 1019 hPa 0,0 mm 5,0 km/h (1 Bft) N 360 2,8 C 9,2 C
04.05.2020 22:00 22,3 C 10,8 C 30 % 60 % 1018 hPa 0,0 mm 9,0 km/h (2 Bft) N-NW45 335 3,4 C 10,8 C
04.05.2020 21:00 22,6 C 12,5 C 30 % 56 % 1017 hPa 0,0 mm 8,3 km/h (2 Bft) N 360 4,0 C 12,5 C
04.05.2020 20:00 22,9 C 14,9 C 29 % 51 % 1017 hPa 0,0 mm 9,7 km/h (2 Bft) N-NW45 335 4,9 C 14,9 C
04.05.2020 19:00 22,8 C 15,4 C 29 % 50 % 1016 hPa 0,0 mm 1,8 km/h (1 Bft) N-NW45 335 5,0 C 15,4 C
04.05.2020 18:00 22,8 C 15,6 C 29 % 49 % 1016 hPa 0,0 mm 3,2 km/h (1 Bft) N-NW45 335 4,9 C 15,6 C
04.05.2020 17:00 23,0 C 15,9 C 28 % 51 % 1017 hPa 0,0 mm 0,0 km/h (0 Bft) N-NW45 335 5,8 C 15,9 C
04.05.2020 16:00 23,2 C 15,8 C 29 % 52 % 1016 hPa 0,0 mm 9,4 km/h (2 Bft) N 360 6,0 C 15,8 C
04.05.2020 15:00 23,0 C 15,4 C 29 % 54 % 1017 hPa 0,0 mm 6,1 km/h (2 Bft) W-NW45 290 6,1 C 15,4 C
04.05.2020 14:00 23,0 C 14,6 C 30 % 63 % 1017 hPa 0,0 mm 4,3 km/h (1 Bft) N-NO45 20 7,6 C 14,6 C
04.05.2020 13:00 22,8 C 13,4 C 32 % 68 % 1016 hPa 0,0 mm 5,4 km/h (1 Bft) N 360 7,6 C 13,4 C
04.05.2020 12:00 22,7 C 12,5 C 31 % 74 % 1016 hPa 0,0 mm 9,0 km/h (2 Bft) N-NW45 335 8,0 C 12,5 C
_ Min-Zeit 07:00 07:00 17:00 18:00 12:00 - 17:00 - - 06:00 07:00
Minimum _ 21,4 C 3,3 C 28 % 49 % 1016 hPa - 0,0 km/h (0 Bft) - - 0,1 C 3,3 C
_ Max-Zeit 16:00 17:00 13:00 08:00 01:00 12:00 20:00 - - 12:00 17:00
Maximum _ 23,2 C 15,9 C 32 % 82 % 1020 hPa 0,0 mm 9,7 km/h
N-NW (2 Bft)
- - 8,0 C 15,9 C
Durchschnitt _ 22,3 C 10,1 C 30 % 66 % 1018 hPa #0,0 mm 4,5 km/h (1 Bft) N-NW - 3,7 C 9,9 C